sensor_id;sensor_type;location;lat;lon;timestamp;pressure;altitude;pressure_sealevel;temperature;humidity
6942;BME280;3510;43.200;27.920;2023-02-19T00:02:06;101003.75;;;18.75;36.22
6942;BME280;3510;43.200;27.920;2023-02-19T00:04:33;101015.69;;;19.07;35.76
6942;BME280;3510;43.200;27.920;2023-02-19T00:07:00;101028.16;;;19.18;35.69
6942;BME280;3510;43.200;27.920;2023-02-19T00:09:27;101006.69;;;19.47;35.21
6942;BME280;3510;43.200;27.920;2023-02-19T00:11:53;101012.06;;;19.86;34.48
6942;BME280;3510;43.200;27.920;2023-02-19T00:14:20;100993.28;;;19.51;34.89
6942;BME280;3510;43.200;27.920;2023-02-19T00:16:47;101013.41;;;20.13;33.89
6942;BME280;3510;43.200;27.920;2023-02-19T00:19:19;100988.03;;;20.34;33.36
6942;BME280;3510;43.200;27.920;2023-02-19T00:21:47;100966.13;;;20.03;33.72
6942;BME280;3510;43.200;27.920;2023-02-19T00:24:15;101007.41;;;20.29;33.74
6942;BME280;3510;43.200;27.920;2023-02-19T00:26:43;101002.03;;;19.56;34.96
6942;BME280;3510;43.200;27.920;2023-02-19T00:29:12;101000.19;;;19.86;34.57
6942;BME280;3510;43.200;27.920;2023-02-19T00:31:39;101005.78;;;19.79;34.45
6942;BME280;3510;43.200;27.920;2023-02-19T00:34:06;100991.97;;;19.92;34.39
6942;BME280;3510;43.200;27.920;2023-02-19T00:36:36;100981.97;;;19.96;34.43
6942;BME280;3510;43.200;27.920;2023-02-19T00:39:04;100981.75;;;19.92;34.17
6942;BME280;3510;43.200;27.920;2023-02-19T00:41:32;100971.59;;;20.11;34.03
6942;BME280;3510;43.200;27.920;2023-02-19T00:44:00;100968.06;;;19.73;34.59
6942;BME280;3510;43.200;27.920;2023-02-19T00:46:29;100962.66;;;19.34;35.49
6942;BME280;3510;43.200;27.920;2023-02-19T00:48:57;100969.97;;;19.45;35.12
6942;BME280;3510;43.200;27.920;2023-02-19T00:51:27;100961.34;;;19.59;34.95
6942;BME280;3510;43.200;27.920;2023-02-19T00:53:55;100958.09;;;19.45;35.20
6942;BME280;3510;43.200;27.920;2023-02-19T00:56:22;100951.81;;;19.89;34.41
6942;BME280;3510;43.200;27.920;2023-02-19T00:58:49;100954.34;;;19.89;34.51
6942;BME280;3510;43.200;27.920;2023-02-19T01:01:16;100933.41;;;19.96;34.33
6942;BME280;3510;43.200;27.920;2023-02-19T01:03:44;100933.81;;;19.19;35.31
6942;BME280;3510;43.200;27.920;2023-02-19T01:06:13;100934.19;;;19.27;35.26
6942;BME280;3510;43.200;27.920;2023-02-19T01:08:40;100924.53;;;19.38;35.00
6942;BME280;3510;43.200;27.920;2023-02-19T01:11:11;100904.22;;;19.23;34.88
6942;BME280;3510;43.200;27.920;2023-02-19T01:13:38;100937.03;;;19.49;34.86
6942;BME280;3510;43.200;27.920;2023-02-19T01:16:06;100870.97;;;19.05;34.67
6942;BME280;3510;43.200;27.920;2023-02-19T01:18:34;100918.88;;;19.43;34.73
6942;BME280;3510;43.200;27.920;2023-02-19T01:21:04;100919.69;;;19.26;34.94
6942;BME280;3510;43.200;27.920;2023-02-19T01:23:31;100911.47;;;19.15;35.18
6942;BME280;3510;43.200;27.920;2023-02-19T01:25:58;100908.38;;;19.21;35.22
6942;BME280;3510;43.200;27.920;2023-02-19T01:28:26;100907.63;;;19.57;34.49
6942;BME280;3510;43.200;27.920;2023-02-19T01:30:53;100885.56;;;19.58;34.31
6942;BME280;3510;43.200;27.920;2023-02-19T01:33:21;100899.84;;;19.54;34.42
6942;BME280;3510;43.200;27.920;2023-02-19T01:35:48;100900.84;;;19.40;34.74
6942;BME280;3510;43.200;27.920;2023-02-19T01:38:14;100876.78;;;19.19;34.51
6942;BME280;3510;43.200;27.920;2023-02-19T01:40:41;100903.84;;;19.49;34.68
6942;BME280;3510;43.200;27.920;2023-02-19T01:43:14;100882.84;;;19.55;34.46
6942;BME280;3510;43.200;27.920;2023-02-19T01:45:44;100900.25;;;19.80;34.05
6942;BME280;3510;43.200;27.920;2023-02-19T01:48:14;100844.31;;;19.50;34.14
6942;BME280;3510;43.200;27.920;2023-02-19T01:50:46;100874.66;;;19.44;34.59
6942;BME280;3510;43.200;27.920;2023-02-19T01:53:16;100866.91;;;19.25;35.04
6942;BME280;3510;43.200;27.920;2023-02-19T01:55:45;100876.63;;;19.16;35.54
6942;BME280;3510;43.200;27.920;2023-02-19T01:58:14;100872.66;;;19.04;35.46
6942;BME280;3510;43.200;27.920;2023-02-19T02:00:43;100872.44;;;19.34;35.06
6942;BME280;3510;43.200;27.920;2023-02-19T02:03:10;100877.19;;;19.26;35.06
6942;BME280;3510;43.200;27.920;2023-02-19T02:05:46;100868.72;;;19.27;34.98
6942;BME280;3510;43.200;27.920;2023-02-19T02:08:16;100875.34;;;19.24;35.33
6942;BME280;3510;43.200;27.920;2023-02-19T02:10:56;100868.75;;;19.45;34.89
6942;BME280;3510;43.200;27.920;2023-02-19T02:13:23;100856.97;;;19.31;35.08
6942;BME280;3510;43.200;27.920;2023-02-19T02:15:58;100820.06;;;19.06;35.04
6942;BME280;3510;43.200;27.920;2023-02-19T02:18:39;100870.81;;;19.52;34.71
6942;BME280;3510;43.200;27.920;2023-02-19T02:21:28;100855.19;;;19.28;34.89
6942;BME280;3510;43.200;27.920;2023-02-19T02:24:11;100873.47;;;19.03;35.59
6942;BME280;3510;43.200;27.920;2023-02-19T02:26:56;100859.66;;;18.67;36.21
6942;BME280;3510;43.200;27.920;2023-02-19T02:32:29;100875.41;;;18.91;35.79
6942;BME280;3510;43.200;27.920;2023-02-19T02:35:04;100872.44;;;19.34;35.25
6942;BME280;3510;43.200;27.920;2023-02-19T02:37:35;100877.75;;;19.55;34.35
6942;BME280;3510;43.200;27.920;2023-02-19T02:40:04;100796.72;;;19.17;34.68
6942;BME280;3510;43.200;27.920;2023-02-19T02:42:32;100871.06;;;19.75;34.26
6942;BME280;3510;43.200;27.920;2023-02-19T02:45:22;100875.69;;;19.82;34.01
6942;BME280;3510;43.200;27.920;2023-02-19T02:48:08;100874.94;;;19.67;34.56
6942;BME280;3510;43.200;27.920;2023-02-19T02:50:39;100876.28;;;19.76;34.14
6942;BME280;3510;43.200;27.920;2023-02-19T02:53:11;100876.91;;;19.90;33.98
6942;BME280;3510;43.200;27.920;2023-02-19T02:55:52;100876.84;;;19.37;34.98
6942;BME280;3510;43.200;27.920;2023-02-19T02:58:21;100875.22;;;19.39;34.95
6942;BME280;3510;43.200;27.920;2023-02-19T03:00:53;100866.19;;;18.95;35.68
6942;BME280;3510;43.200;27.920;2023-02-19T03:03:36;100886.28;;;18.72;36.25
6942;BME280;3510;43.200;27.920;2023-02-19T03:06:06;100884.88;;;18.94;35.92
6942;BME280;3510;43.200;27.920;2023-02-19T03:08:37;100879.28;;;19.17;35.26
6942;BME280;3510;43.200;27.920;2023-02-19T03:11:09;100886.91;;;19.33;34.92
6942;BME280;3510;43.200;27.920;2023-02-19T03:13:46;100885.00;;;19.29;34.89
6942;BME280;3510;43.200;27.920;2023-02-19T03:16:31;100879.13;;;19.14;35.09
6942;BME280;3510;43.200;27.920;2023-02-19T03:19:15;100880.41;;;18.90;35.71
6942;BME280;3510;43.200;27.920;2023-02-19T03:21:57;100887.72;;;18.83;36.00
6942;BME280;3510;43.200;27.920;2023-02-19T03:24:28;100878.63;;;18.56;36.52
6942;BME280;3510;43.200;27.920;2023-02-19T03:27:08;100868.81;;;18.16;37.27
6942;BME280;3510;43.200;27.920;2023-02-19T03:29:38;100877.50;;;17.74;38.02
6942;BME280;3510;43.200;27.920;2023-02-19T03:32:08;100864.16;;;17.33;38.75
6942;BME280;3510;43.200;27.920;2023-02-19T03:34:43;100882.06;;;17.64;38.40
6942;BME280;3510;43.200;27.920;2023-02-19T03:37:14;100803.13;;;17.33;38.08
6942;BME280;3510;43.200;27.920;2023-02-19T03:39:42;100878.47;;;17.90;37.66
6942;BME280;3510;43.200;27.920;2023-02-19T03:42:17;100801.16;;;17.59;37.28
6942;BME280;3510;43.200;27.920;2023-02-19T03:45:01;100891.56;;;18.13;36.85
6942;BME280;3510;43.200;27.920;2023-02-19T03:47:37;100894.97;;;17.97;37.48
6942;BME280;3510;43.200;27.920;2023-02-19T03:50:13;100899.19;;;18.28;36.33
6942;BME280;3510;43.200;27.920;2023-02-19T03:52:52;100873.28;;;17.74;37.18
6942;BME280;3510;43.200;27.920;2023-02-19T03:55:25;100882.66;;;17.60;37.69
6942;BME280;3510;43.200;27.920;2023-02-19T03:57:56;100888.38;;;17.56;37.97
6942;BME280;3510;43.200;27.920;2023-02-19T04:00:29;100882.78;;;17.47;38.04
6942;BME280;3510;43.200;27.920;2023-02-19T04:03:00;100860.47;;;17.13;38.35
6942;BME280;3510;43.200;27.920;2023-02-19T04:05:32;100894.34;;;17.72;37.42
6942;BME280;3510;43.200;27.920;2023-02-19T04:08:07;100901.53;;;17.64;37.38
6942;BME280;3510;43.200;27.920;2023-02-19T04:10:37;100910.88;;;17.78;37.00
6942;BME280;3510;43.200;27.920;2023-02-19T04:13:09;100907.25;;;18.04;36.64
6942;BME280;3510;43.200;27.920;2023-02-19T04:15:40;100924.16;;;18.50;35.76
6942;BME280;3510;43.200;27.920;2023-02-19T04:18:13;100926.81;;;18.05;36.26
6942;BME280;3510;43.200;27.920;2023-02-19T04:20:44;100933.81;;;18.55;35.79
6942;BME280;3510;43.200;27.920;2023-02-19T04:23:13;100913.66;;;17.98;36.27
6942;BME280;3510;43.200;27.920;2023-02-19T04:25:44;100915.78;;;17.90;36.48
6942;BME280;3510;43.200;27.920;2023-02-19T04:28:13;100901.97;;;18.01;36.06
6942;BME280;3510;43.200;27.920;2023-02-19T04:30:41;100903.91;;;17.90;36.47
6942;BME280;3510;43.200;27.920;2023-02-19T04:33:08;100928.31;;;17.87;36.31
6942;BME280;3510;43.200;27.920;2023-02-19T04:35:35;100902.03;;;18.18;35.71
6942;BME280;3510;43.200;27.920;2023-02-19T04:38:03;100901.25;;;18.19;35.47
6942;BME280;3510;43.200;27.920;2023-02-19T04:40:30;100828.28;;;18.04;34.98
6942;BME280;3510;43.200;27.920;2023-02-19T04:42:56;100905.81;;;18.72;34.68
6942;BME280;3510;43.200;27.920;2023-02-19T04:45:23;100894.53;;;18.52;34.71
6942;BME280;3510;43.200;27.920;2023-02-19T04:47:50;100909.75;;;18.81;34.44
6942;BME280;3510;43.200;27.920;2023-02-19T04:50:17;100918.53;;;18.55;34.61
6942;BME280;3510;43.200;27.920;2023-02-19T04:52:43;100905.88;;;17.80;35.54
6942;BME280;3510;43.200;27.920;2023-02-19T04:55:12;100900.44;;;18.20;34.91
6942;BME280;3510;43.200;27.920;2023-02-19T04:57:38;100933.59;;;18.05;35.19
6942;BME280;3510;43.200;27.920;2023-02-19T05:00:06;100927.53;;;18.18;34.88
6942;BME280;3510;43.200;27.920;2023-02-19T05:02:33;100950.53;;;18.04;34.78
6942;BME280;3510;43.200;27.920;2023-02-19T05:05:00;100950.31;;;18.31;34.37
6942;BME280;3510;43.200;27.920;2023-02-19T05:07:27;100847.81;;;17.74;34.14
6942;BME280;3510;43.200;27.920;2023-02-19T05:09:53;100957.34;;;18.35;34.17
6942;BME280;3510;43.200;27.920;2023-02-19T05:12:21;100962.97;;;18.29;33.96
6942;BME280;3510;43.200;27.920;2023-02-19T05:14:48;100943.06;;;18.22;33.74
6942;BME280;3510;43.200;27.920;2023-02-19T05:17:15;100963.41;;;18.37;33.59
6942;BME280;3510;43.200;27.920;2023-02-19T05:19:41;100966.97;;;18.55;32.99
6942;BME280;3510;43.200;27.920;2023-02-19T05:22:08;100961.34;;;18.46;33.11
6942;BME280;3510;43.200;27.920;2023-02-19T05:24:35;100943.56;;;18.62;32.58
6942;BME280;3510;43.200;27.920;2023-02-19T05:27:02;100957.34;;;18.66;32.28
6942;BME280;3510;43.200;27.920;2023-02-19T05:29:31;100939.22;;;18.76;32.04
6942;BME280;3510;43.200;27.920;2023-02-19T05:31:58;100994.56;;;19.10;32.00
6942;BME280;3510;43.200;27.920;2023-02-19T05:34:24;101000.28;;;18.90;31.98
6942;BME280;3510;43.200;27.920;2023-02-19T05:36:51;101020.72;;;19.06;32.00
6942;BME280;3510;43.200;27.920;2023-02-19T05:39:18;101008.84;;;19.06;31.40
6942;BME280;3510;43.200;27.920;2023-02-19T05:41:44;101017.38;;;19.07;31.61
6942;BME280;3510;43.200;27.920;2023-02-19T05:44:11;100980.19;;;19.12;31.51
6942;BME280;3510;43.200;27.920;2023-02-19T05:46:39;101002.72;;;19.36;30.92
6942;BME280;3510;43.200;27.920;2023-02-19T05:49:06;101048.88;;;19.56;30.72
6942;BME280;3510;43.200;27.920;2023-02-19T05:51:32;101047.44;;;19.62;30.66
6942;BME280;3510;43.200;27.920;2023-02-19T05:53:59;101064.69;;;19.33;31.18
6942;BME280;3510;43.200;27.920;2023-02-19T05:56:30;101058.91;;;19.53;30.79
6942;BME280;3510;43.200;27.920;2023-02-19T05:58:58;101031.34;;;19.30;30.70
6942;BME280;3510;43.200;27.920;2023-02-19T06:01:27;101061.47;;;19.37;30.75
6942;BME280;3510;43.200;27.920;2023-02-19T06:03:56;101080.16;;;19.69;30.62
6942;BME280;3510;43.200;27.920;2023-02-19T06:06:23;101089.34;;;19.81;30.51
6942;BME280;3510;43.200;27.920;2023-02-19T06:08:50;101083.75;;;19.56;30.64
6942;BME280;3510;43.200;27.920;2023-02-19T06:11:17;101094.19;;;19.44;31.19
6942;BME280;3510;43.200;27.920;2023-02-19T06:13:44;101100.69;;;19.23;31.45
6942;BME280;3510;43.200;27.920;2023-02-19T06:16:14;101055.50;;;19.37;31.04
6942;BME280;3510;43.200;27.920;2023-02-19T06:18:42;101089.38;;;19.50;31.07
6942;BME280;3510;43.200;27.920;2023-02-19T06:21:11;101080.34;;;19.72;30.94
6942;BME280;3510;43.200;27.920;2023-02-19T06:23:38;101088.13;;;19.58;30.92
6942;BME280;3510;43.200;27.920;2023-02-19T06:26:07;101091.81;;;19.80;30.68
6942;BME280;3510;43.200;27.920;2023-02-19T06:28:35;101110.41;;;19.94;30.63
6942;BME280;3510;43.200;27.920;2023-02-19T06:31:17;101092.63;;;19.95;30.63
6942;BME280;3510;43.200;27.920;2023-02-19T06:33:44;101109.47;;;19.92;30.80
6942;BME280;3510;43.200;27.920;2023-02-19T06:36:14;101125.84;;;19.95;30.73
6942;BME280;3510;43.200;27.920;2023-02-19T06:38:41;101092.59;;;20.12;30.40
6942;BME280;3510;43.200;27.920;2023-02-19T06:41:09;101092.03;;;20.17;30.17
6942;BME280;3510;43.200;27.920;2023-02-19T06:43:36;101061.59;;;20.05;30.52
6942;BME280;3510;43.200;27.920;2023-02-19T06:46:04;101096.66;;;20.08;30.80
6942;BME280;3510;43.200;27.920;2023-02-19T06:48:32;101089.75;;;20.58;30.27
6942;BME280;3510;43.200;27.920;2023-02-19T06:50:59;101086.50;;;20.44;30.50
6942;BME280;3510;43.200;27.920;2023-02-19T06:53:27;101098.63;;;21.19;29.73
6942;BME280;3510;43.200;27.920;2023-02-19T06:55:55;101097.66;;;20.62;30.75
6942;BME280;3510;43.200;27.920;2023-02-19T06:58:22;101105.03;;;20.22;31.51
6942;BME280;3510;43.200;27.920;2023-02-19T07:00:49;101122.69;;;20.17;31.63
6942;BME280;3510;43.200;27.920;2023-02-19T07:03:16;101110.41;;;20.44;31.17
6942;BME280;3510;43.200;27.920;2023-02-19T07:05:43;101111.03;;;20.40;31.26
6942;BME280;3510;43.200;27.920;2023-02-19T07:08:10;101096.75;;;20.97;30.39
6942;BME280;3510;43.200;27.920;2023-02-19T07:10:38;101067.38;;;20.53;30.67
6942;BME280;3510;43.200;27.920;2023-02-19T07:13:05;101074.81;;;20.49;31.07
6942;BME280;3510;43.200;27.920;2023-02-19T07:15:31;101092.91;;;20.70;30.47
6942;BME280;3510;43.200;27.920;2023-02-19T07:17:58;101102.63;;;20.59;30.86
6942;BME280;3510;43.200;27.920;2023-02-19T07:20:25;101106.72;;;20.73;30.60
6942;BME280;3510;43.200;27.920;2023-02-19T07:22:52;101115.41;;;20.77;30.57
6942;BME280;3510;43.200;27.920;2023-02-19T07:25:19;101102.31;;;20.89;30.07
6942;BME280;3510;43.200;27.920;2023-02-19T07:27:47;101133.44;;;21.34;29.65
6942;BME280;3510;43.200;27.920;2023-02-19T07:30:14;101128.16;;;21.13;30.11
6942;BME280;3510;43.200;27.920;2023-02-19T07:32:41;101128.19;;;21.50;29.37
6942;BME280;3510;43.200;27.920;2023-02-19T07:35:10;101135.44;;;21.21;29.95
6942;BME280;3510;43.200;27.920;2023-02-19T07:37:37;101105.84;;;21.28;29.80
6942;BME280;3510;43.200;27.920;2023-02-19T07:40:04;101120.22;;;21.81;29.05
6942;BME280;3510;43.200;27.920;2023-02-19T07:42:31;101106.16;;;21.92;28.79
6942;BME280;3510;43.200;27.920;2023-02-19T07:44:59;101125.19;;;21.59;29.56
6942;BME280;3510;43.200;27.920;2023-02-19T07:47:25;101131.72;;;21.52;29.70
6942;BME280;3510;43.200;27.920;2023-02-19T07:49:52;101121.38;;;21.50;29.50
6942;BME280;3510;43.200;27.920;2023-02-19T07:52:19;101124.56;;;22.03;29.15
6942;BME280;3510;43.200;27.920;2023-02-19T07:54:45;101120.03;;;20.84;30.17
6942;BME280;3510;43.200;27.920;2023-02-19T07:57:12;101139.06;;;21.09;30.00
6942;BME280;3510;43.200;27.920;2023-02-19T07:59:42;101114.09;;;21.03;30.02
6942;BME280;3510;43.200;27.920;2023-02-19T08:02:14;101098.53;;;20.81;30.58
6942;BME280;3510;43.200;27.920;2023-02-19T08:04:55;101037.88;;;20.78;29.81
6942;BME280;3510;43.200;27.920;2023-02-19T08:07:22;101074.56;;;21.53;29.22
6942;BME280;3510;43.200;27.920;2023-02-19T08:09:49;101105.19;;;21.32;29.78
6942;BME280;3510;43.200;27.920;2023-02-19T08:12:36;101069.09;;;21.65;29.19
6942;BME280;3510;43.200;27.920;2023-02-19T08:15:16;101089.41;;;22.20;28.65
6942;BME280;3510;43.200;27.920;2023-02-19T08:17:44;101092.13;;;22.44;28.54
6942;BME280;3510;43.200;27.920;2023-02-19T08:20:11;101076.59;;;22.41;28.24
6942;BME280;3510;43.200;27.920;2023-02-19T08:22:38;101098.06;;;21.83;29.35
6942;BME280;3510;43.200;27.920;2023-02-19T08:25:05;101084.78;;;21.92;29.23
6942;BME280;3510;43.200;27.920;2023-02-19T08:27:32;101094.47;;;21.59;29.67
6942;BME280;3510;43.200;27.920;2023-02-19T08:29:58;101082.88;;;21.47;29.86
6942;BME280;3510;43.200;27.920;2023-02-19T08:32:25;101083.78;;;21.69;29.11
6942;BME280;3510;43.200;27.920;2023-02-19T08:34:53;101065.34;;;21.97;29.25
6942;BME280;3510;43.200;27.920;2023-02-19T08:37:20;101079.88;;;21.77;29.43
6942;BME280;3510;43.200;27.920;2023-02-19T08:39:47;101078.09;;;22.15;29.18
6942;BME280;3510;43.200;27.920;2023-02-19T08:42:14;101065.94;;;22.11;29.24
6942;BME280;3510;43.200;27.920;2023-02-19T08:44:40;101076.47;;;21.97;29.22
6942;BME280;3510;43.200;27.920;2023-02-19T08:47:07;101064.97;;;22.09;29.35
6942;BME280;3510;43.200;27.920;2023-02-19T08:49:34;101058.16;;;21.88;29.20
6942;BME280;3510;43.200;27.920;2023-02-19T08:52:01;101083.34;;;22.60;28.82
6942;BME280;3510;43.200;27.920;2023-02-19T08:54:29;101042.69;;;22.48;28.89
6942;BME280;3510;43.200;27.920;2023-02-19T08:56:55;101063.28;;;22.29;29.22
6942;BME280;3510;43.200;27.920;2023-02-19T08:59:23;101074.03;;;22.20;29.21
6942;BME280;3510;43.200;27.920;2023-02-19T09:01:50;101058.28;;;22.12;29.33
6942;BME280;3510;43.200;27.920;2023-02-19T09:04:17;101071.94;;;22.53;28.92
6942;BME280;3510;43.200;27.920;2023-02-19T09:06:44;101062.16;;;22.65;28.98
6942;BME280;3510;43.200;27.920;2023-02-19T09:09:13;101075.84;;;22.43;29.12
6942;BME280;3510;43.200;27.920;2023-02-19T09:11:41;101059.00;;;22.50;29.28
6942;BME280;3510;43.200;27.920;2023-02-19T09:14:08;101032.13;;;22.40;29.21
6942;BME280;3510;43.200;27.920;2023-02-19T09:16:35;101072.72;;;22.94;28.74
6942;BME280;3510;43.200;27.920;2023-02-19T09:19:02;101072.41;;;22.65;29.15
6942;BME280;3510;43.200;27.920;2023-02-19T09:21:29;101056.69;;;22.79;29.08
6942;BME280;3510;43.200;27.920;2023-02-19T09:23:56;101069.19;;;22.69;29.45
6942;BME280;3510;43.200;27.920;2023-02-19T09:26:24;101067.84;;;23.24;28.65
6942;BME280;3510;43.200;27.920;2023-02-19T09:28:51;101076.03;;;22.91;28.98
6942;BME280;3510;43.200;27.920;2023-02-19T09:31:17;101079.78;;;22.79;29.17
6942;BME280;3510;43.200;27.920;2023-02-19T09:33:45;101090.75;;;23.18;28.52
6942;BME280;3510;43.200;27.920;2023-02-19T09:36:13;101086.63;;;22.78;29.48
6942;BME280;3510;43.200;27.920;2023-02-19T09:38:41;101068.06;;;22.63;29.29
6942;BME280;3510;43.200;27.920;2023-02-19T09:41:14;101069.44;;;22.98;28.80
6942;BME280;3510;43.200;27.920;2023-02-19T09:43:44;101097.94;;;23.04;29.23
6942;BME280;3510;43.200;27.920;2023-02-19T09:46:22;101092.84;;;23.06;29.11
6942;BME280;3510;43.200;27.920;2023-02-19T09:48:51;101026.84;;;22.81;28.84
6942;BME280;3510;43.200;27.920;2023-02-19T09:51:19;101068.38;;;23.15;28.50
6942;BME280;3510;43.200;27.920;2023-02-19T09:53:48;101103.22;;;23.31;28.50
6942;BME280;3510;43.200;27.920;2023-02-19T09:56:16;101083.88;;;23.41;28.53
6942;BME280;3510;43.200;27.920;2023-02-19T09:58:46;101076.28;;;24.18;27.28
6942;BME280;3510;43.200;27.920;2023-02-19T10:01:14;101069.41;;;24.42;27.29
6942;BME280;3510;43.200;27.920;2023-02-19T10:03:44;101057.75;;;23.53;28.04
6942;BME280;3510;43.200;27.920;2023-02-19T10:06:17;101060.44;;;24.05;27.34
6942;BME280;3510;43.200;27.920;2023-02-19T10:08:46;101071.31;;;24.48;26.74
6942;BME280;3510;43.200;27.920;2023-02-19T10:11:14;101060.63;;;23.84;27.61
6942;BME280;3510;43.200;27.920;2023-02-19T10:13:46;101070.59;;;24.01;27.58
6942;BME280;3510;43.200;27.920;2023-02-19T10:16:16;101063.44;;;23.92;27.38
6942;BME280;3510;43.200;27.920;2023-02-19T10:18:45;101055.66;;;23.90;27.62
6942;BME280;3510;43.200;27.920;2023-02-19T10:21:16;101025.06;;;23.98;27.13
6942;BME280;3510;43.200;27.920;2023-02-19T10:23:44;101048.78;;;24.41;26.18
6942;BME280;3510;43.200;27.920;2023-02-19T10:26:13;101019.44;;;24.10;26.84
6942;BME280;3510;43.200;27.920;2023-02-19T10:28:40;101042.78;;;24.42;26.84
6942;BME280;3510;43.200;27.920;2023-02-19T10:31:17;100987.47;;;24.56;26.11
6942;BME280;3510;43.200;27.920;2023-02-19T10:33:49;101038.25;;;24.07;27.17
6942;BME280;3510;43.200;27.920;2023-02-19T10:36:25;101025.72;;;24.18;27.20
6942;BME280;3510;43.200;27.920;2023-02-19T10:38:53;101021.00;;;24.32;26.81
6942;BME280;3510;43.200;27.920;2023-02-19T10:41:22;101019.88;;;23.97;27.09
6942;BME280;3510;43.200;27.920;2023-02-19T10:43:54;101023.78;;;23.85;27.45
6942;BME280;3510;43.200;27.920;2023-02-19T10:46:25;100968.66;;;23.52;27.92
6942;BME280;3510;43.200;27.920;2023-02-19T10:48:56;101024.81;;;23.41;27.90
6942;BME280;3510;43.200;27.920;2023-02-19T10:51:32;100999.31;;;23.23;28.05
6942;BME280;3510;43.200;27.920;2023-02-19T10:54:05;100993.00;;;23.63;27.53
6942;BME280;3510;43.200;27.920;2023-02-19T10:56:33;100968.69;;;24.31;26.43
6942;BME280;3510;43.200;27.920;2023-02-19T10:59:24;100993.41;;;23.99;27.25
6942;BME280;3510;43.200;27.920;2023-02-19T11:01:56;100997.59;;;24.24;27.13
6942;BME280;3510;43.200;27.920;2023-02-19T11:04:24;100994.28;;;24.00;27.24
6942;BME280;3510;43.200;27.920;2023-02-19T11:06:51;101003.25;;;24.12;26.81
6942;BME280;3510;43.200;27.920;2023-02-19T11:09:25;100994.47;;;23.80;27.18
6942;BME280;3510;43.200;27.920;2023-02-19T11:11:54;100991.53;;;23.95;27.26
6942;BME280;3510;43.200;27.920;2023-02-19T11:14:23;100981.22;;;23.94;27.34
6942;BME280;3510;43.200;27.920;2023-02-19T11:16:54;100985.59;;;24.23;27.00
6942;BME280;3510;43.200;27.920;2023-02-19T11:19:24;100982.56;;;24.09;27.34
6942;BME280;3510;43.200;27.920;2023-02-19T11:21:52;100979.72;;;23.75;27.92
6942;BME280;3510;43.200;27.920;2023-02-19T11:24:25;100958.91;;;24.21;27.41
6942;BME280;3510;43.200;27.920;2023-02-19T11:26:54;100961.91;;;24.62;27.00
6942;BME280;3510;43.200;27.920;2023-02-19T11:29:22;100973.31;;;24.14;27.45
6942;BME280;3510;43.200;27.920;2023-02-19T11:31:54;100964.28;;;24.27;27.15
6942;BME280;3510;43.200;27.920;2023-02-19T11:34:26;100962.44;;;24.80;26.63
6942;BME280;3510;43.200;27.920;2023-02-19T11:37:09;100958.41;;;24.58;26.76
6942;BME280;3510;43.200;27.920;2023-02-19T11:39:38;100953.50;;;24.68;26.86
6942;BME280;3510;43.200;27.920;2023-02-19T11:42:22;100969.88;;;24.14;27.27
6942;BME280;3510;43.200;27.920;2023-02-19T11:47:59;100969.47;;;24.86;26.82
6942;BME280;3510;43.200;27.920;2023-02-19T11:50:38;100955.19;;;25.27;26.11
6942;BME280;3510;43.200;27.920;2023-02-19T11:53:16;100956.59;;;24.56;27.06
6942;BME280;3510;43.200;27.920;2023-02-19T11:55:51;100924.31;;;24.99;26.24
6942;BME280;3510;43.200;27.920;2023-02-19T11:58:40;100947.91;;;24.81;26.70
6942;BME280;3510;43.200;27.920;2023-02-19T12:01:16;100934.81;;;25.70;25.92
6942;BME280;3510;43.200;27.920;2023-02-19T12:04:03;100900.91;;;25.54;
6942;BME280;3510;43.200;27.920;2023-02-19T12:06:43;100856.16;;;24.84;25.61
6942;BME280;3510;43.200;27.920;2023-02-19T12:09:25;100915.50;;;25.21;26.18
6942;BME280;3510;43.200;27.920;2023-02-19T12:12:06;100928.06;;;24.78;26.54
6942;BME280;3510;43.200;27.920;2023-02-19T12:14:51;100894.22;;;24.65;26.26
6942;BME280;3510;43.200;27.920;2023-02-19T12:17:39;100892.31;;;24.89;26.28
6942;BME280;3510;43.200;27.920;2023-02-19T12:20:20;100921.09;;;24.44;26.70
6942;BME280;3510;43.200;27.920;2023-02-19T12:22:59;100923.34;;;24.63;26.31
6942;BME280;3510;43.200;27.920;2023-02-19T12:25:45;100913.75;;;24.58;27.02
6942;BME280;3510;43.200;27.920;2023-02-19T12:31:09;100895.75;;;25.21;25.97
6942;BME280;3510;43.200;27.920;2023-02-19T12:34:03;100897.34;;;24.84;25.91
6942;BME280;3510;43.200;27.920;2023-02-19T12:36:40;100899.25;;;24.92;25.57
6942;BME280;3510;43.200;27.920;2023-02-19T12:39:15;100916.00;;;24.47;26.30
6942;BME280;3510;43.200;27.920;2023-02-19T12:41:51;100878.00;;;24.69;26.45
6942;BME280;3510;43.200;27.920;2023-02-19T12:44:25;100923.44;;;24.38;26.43
6942;BME280;3510;43.200;27.920;2023-02-19T12:46:59;100892.06;;;24.80;26.15
6942;BME280;3510;43.200;27.920;2023-02-19T12:49:32;100886.16;;;24.84;25.95
6942;BME280;3510;43.200;27.920;2023-02-19T12:52:07;100882.44;;;24.43;25.93
6942;BME280;3510;43.200;27.920;2023-02-19T12:54:38;100848.06;;;24.12;26.43
6942;BME280;3510;43.200;27.920;2023-02-19T12:57:11;100886.56;;;25.29;25.73
6942;BME280;3510;43.200;27.920;2023-02-19T12:59:44;100894.72;;;24.83;26.15
6942;BME280;3510;43.200;27.920;2023-02-19T13:02:16;100872.84;;;24.67;26.33
6942;BME280;3510;43.200;27.920;2023-02-19T13:04:49;100879.50;;;25.57;25.33
6942;BME280;3510;43.200;27.920;2023-02-19T13:07:24;100885.34;;;25.17;25.50
6942;BME280;3510;43.200;27.920;2023-02-19T13:09:55;100846.13;;;25.27;25.23
6942;BME280;3510;43.200;27.920;2023-02-19T13:12:26;100880.00;;;24.77;26.03
6942;BME280;3510;43.200;27.920;2023-02-19T13:14:57;100857.72;;;24.79;26.40
6942;BME280;3510;43.200;27.920;2023-02-19T13:17:30;100879.28;;;24.83;26.59
6942;BME280;3510;43.200;27.920;2023-02-19T13:20:13;100895.59;;;24.53;27.06
6942;BME280;3510;43.200;27.920;2023-02-19T13:22:45;100851.06;;;24.27;27.01
6942;BME280;3510;43.200;27.920;2023-02-19T13:25:41;100863.41;;;24.68;26.45
6942;BME280;3510;43.200;27.920;2023-02-19T13:28:21;100867.78;;;25.70;25.33